createdAt,value
2023-04-04T00:02:13.359Z,55.22
2023-04-04T00:04:41.090Z,55.34
2023-04-04T00:07:10.100Z,55.90
2023-04-04T00:09:37.890Z,55.77
2023-04-04T00:12:06.646Z,56.55
2023-04-04T00:14:34.200Z,56.05
2023-04-04T00:17:01.728Z,56.59
2023-04-04T00:19:29.246Z,56.35
2023-04-04T00:21:56.810Z,56.56
2023-04-04T00:24:25.743Z,56.41
2023-04-04T00:26:53.653Z,56.03
2023-04-04T00:29:21.406Z,56.09
2023-04-04T00:31:49.017Z,55.67
2023-04-04T00:34:16.576Z,57.02
2023-04-04T00:36:44.148Z,56.47
2023-04-04T00:39:11.673Z,57.08
2023-04-04T00:41:41.744Z,56.83
2023-04-04T00:44:09.704Z,57.14
2023-04-04T00:46:37.322Z,57.16
2023-04-04T00:49:04.949Z,57.47
2023-04-04T00:51:32.471Z,56.98
2023-04-04T00:54:00.400Z,57.59
2023-04-04T00:56:28.918Z,57.51
2023-04-04T00:58:58.557Z,58.79
2023-04-04T01:01:27.068Z,59.00
2023-04-04T01:03:54.894Z,58.35
2023-04-04T01:06:22.491Z,57.88
2023-04-04T01:08:52.044Z,58.66
2023-04-04T01:11:19.795Z,59.34
2023-04-04T01:13:49.008Z,59.23
2023-04-04T01:16:19.396Z,59.92
2023-04-04T01:18:47.965Z,60.48
2023-04-04T01:21:18.172Z,59.77
2023-04-04T01:23:50.919Z,60.45
2023-04-04T01:26:23.553Z,62.25
2023-04-04T01:28:52.313Z,63.45
2023-04-04T01:31:23.952Z,63.23
2023-04-04T01:33:57.343Z,63.12
2023-04-04T01:36:31.850Z,62.55
2023-04-04T01:39:09.330Z,63.35
2023-04-04T01:41:38.839Z,64.10
2023-04-04T01:44:07.018Z,64.54
2023-04-04T01:46:36.958Z,65.59
2023-04-04T01:49:04.578Z,66.19
2023-04-04T01:51:35.236Z,65.17
2023-04-04T01:54:02.902Z,65.04
2023-04-04T01:56:30.456Z,65.03
2023-04-04T01:58:59.679Z,65.02
2023-04-04T02:01:27.262Z,65.65
2023-04-04T02:03:54.878Z,66.23
2023-04-04T02:06:22.457Z,66.18
2023-04-04T02:08:50.089Z,65.67
2023-04-04T02:11:18.462Z,65.34
2023-04-04T02:13:45.993Z,67.50
2023-04-04T02:16:18.371Z,68.04
2023-04-04T02:18:46.001Z,66.08
2023-04-04T02:21:13.603Z,67.48
2023-04-04T02:23:41.142Z,67.94
2023-04-04T02:26:08.808Z,69.41
2023-04-04T02:28:38.317Z,65.86
2023-04-04T02:31:06.034Z,68.19
2023-04-04T02:33:35.578Z,68.58
2023-04-04T02:36:06.042Z,69.31
2023-04-04T02:38:34.147Z,69.64
2023-04-04T02:41:05.754Z,68.64
2023-04-04T02:43:33.355Z,69.68
2023-04-04T02:46:14.402Z,69.31
2023-04-04T02:48:47.763Z,71.20
2023-04-04T02:51:15.669Z,70.78
2023-04-04T02:53:43.242Z,70.80
2023-04-04T02:56:20.784Z,71.41
2023-04-04T02:58:48.637Z,71.78
2023-04-04T03:01:16.353Z,71.77
2023-04-04T03:03:44.005Z,72.07
2023-04-04T03:06:14.807Z,72.79
2023-04-04T03:08:42.375Z,71.92
2023-04-04T03:11:10.433Z,71.90
2023-04-04T03:13:37.986Z,71.24
2023-04-04T03:16:07.537Z,71.60
2023-04-04T03:18:49.302Z,69.55
2023-04-04T03:21:22.118Z,69.64
2023-04-04T03:23:50.137Z,69.25
2023-04-04T03:26:17.665Z,68.19
2023-04-04T03:28:45.254Z,69.94
2023-04-04T03:31:14.388Z,68.82
2023-04-04T03:33:43.558Z,68.40
2023-04-04T03:36:13.014Z,68.85
2023-04-04T03:38:42.201Z,69.01
2023-04-04T03:41:11.116Z,69.40
2023-04-04T03:43:38.721Z,70.01
2023-04-04T03:46:07.902Z,70.79
2023-04-04T03:48:36.070Z,68.27
2023-04-04T03:51:06.881Z,68.06
2023-04-04T03:53:35.621Z,68.20
2023-04-04T03:56:05.434Z,68.68
2023-04-04T03:58:33.049Z,68.97
2023-04-04T04:01:00.736Z,68.91
2023-04-04T04:03:31.191Z,68.20
2023-04-04T04:05:59.923Z,68.14
2023-04-04T04:08:27.857Z,68.09
2023-04-04T04:10:55.628Z,67.36
2023-04-04T04:13:24.606Z,67.49
2023-04-04T04:15:52.629Z,66.48
2023-04-04T04:18:22.871Z,66.95
2023-04-04T04:20:52.427Z,66.67
2023-04-04T04:23:20.036Z,67.39
2023-04-04T04:25:51.053Z,67.23
2023-04-04T04:28:21.519Z,67.26
2023-04-04T04:30:51.173Z,67.34
2023-04-04T04:33:22.387Z,67.95
2023-04-04T04:36:01.925Z,67.60
2023-04-04T04:38:36.629Z,67.46
2023-04-04T04:41:04.578Z,66.90
2023-04-04T04:43:40.973Z,67.38
2023-04-04T04:46:10.246Z,66.26
2023-04-04T04:48:38.140Z,67.48
2023-04-04T04:51:07.014Z,66.25
2023-04-04T04:53:45.072Z,67.02
2023-04-04T04:56:12.662Z,67.34
2023-04-04T04:58:45.081Z,67.19
2023-04-04T05:01:20.743Z,67.08
2023-04-04T05:03:50.315Z,67.08
2023-04-04T05:06:25.858Z,67.87
2023-04-04T05:08:53.462Z,68.32
2023-04-04T05:11:29.202Z,67.54
2023-04-04T05:13:57.364Z,67.44
2023-04-04T05:16:28.458Z,67.94
2023-04-04T05:18:58.416Z,68.02
2023-04-04T05:21:26.699Z,73.33
2023-04-04T05:23:57.324Z,73.46
2023-04-04T05:26:25.935Z,69.57
2023-04-04T05:28:56.273Z,68.94
2023-04-04T05:31:27.637Z,70.26
2023-04-04T05:33:56.592Z,67.73
2023-04-04T05:36:33.753Z,67.52
2023-04-04T05:39:05.838Z,66.99
2023-04-04T05:41:37.558Z,67.96
2023-04-04T05:44:12.578Z,67.25
2023-04-04T05:46:41.576Z,67.70
2023-04-04T05:49:09.354Z,67.86
2023-04-04T05:51:41.202Z,66.92
2023-04-04T05:54:12.212Z,66.65
2023-04-04T05:56:41.212Z,66.19
2023-04-04T05:59:16.458Z,65.64
2023-04-04T06:01:55.802Z,67.07
2023-04-04T06:04:23.931Z,66.37
2023-04-04T06:06:53.157Z,66.65
2023-04-04T06:09:21.909Z,66.81
2023-04-04T06:11:49.474Z,67.10
2023-04-04T06:14:18.032Z,67.11
2023-04-04T06:16:47.595Z,67.41
2023-04-04T06:19:17.936Z,65.69
2023-04-04T06:21:46.162Z,65.65
2023-04-04T06:24:15.125Z,65.11
2023-04-04T06:26:43.078Z,65.13
2023-04-04T06:29:10.676Z,64.94
2023-04-04T06:31:39.867Z,63.70
2023-04-04T06:34:14.958Z,65.00
2023-04-04T06:36:54.547Z,65.01
2023-04-04T06:39:24.727Z,64.16
2023-04-04T06:41:54.257Z,62.45
2023-04-04T06:44:27.232Z,62.14
2023-04-04T06:46:54.924Z,62.17
2023-04-04T06:49:22.589Z,62.28
2023-04-04T06:51:52.501Z,61.47
2023-04-04T06:54:22.199Z,62.08
2023-04-04T06:56:49.756Z,61.74
2023-04-04T06:59:17.450Z,62.19
2023-04-04T07:01:46.019Z,61.27
2023-04-04T07:04:13.733Z,60.72
2023-04-04T07:06:42.137Z,60.71
2023-04-04T07:09:18.430Z,60.07
2023-04-04T07:11:51.066Z,60.60
2023-04-04T07:14:18.969Z,61.93
2023-04-04T07:16:46.496Z,62.75
2023-04-04T07:19:14.124Z,62.22
2023-04-04T07:21:41.664Z,61.82
2023-04-04T07:24:09.457Z,61.20
2023-04-04T07:26:37.058Z,60.40
2023-04-04T07:29:06.166Z,58.90
2023-04-04T07:31:33.742Z,57.63
2023-04-04T07:34:01.363Z,58.06
2023-04-04T07:36:29.162Z,57.98
2023-04-04T07:38:56.797Z,58.22
2023-04-04T07:41:25.563Z,56.86
2023-04-04T07:43:53.110Z,56.90
2023-04-04T07:46:22.268Z,57.36
2023-04-04T07:48:50.460Z,57.58
2023-04-04T07:51:18.095Z,57.06
2023-04-04T07:53:45.664Z,55.58
2023-04-04T07:56:13.231Z,56.14
2023-04-04T07:58:40.766Z,55.97
2023-04-04T08:01:08.347Z,54.95
2023-04-04T08:03:37.348Z,54.41
2023-04-04T08:06:05.351Z,59.78
2023-04-04T08:08:32.977Z,55.83
2023-04-04T08:11:00.577Z,55.15
2023-04-04T08:13:28.198Z,53.83
2023-04-04T08:15:56.065Z,53.65
2023-04-04T08:18:23.599Z,53.35
2023-04-04T08:20:52.524Z,51.63
2023-04-04T08:23:20.037Z,50.97
2023-04-04T08:25:47.606Z,50.36
2023-04-04T08:28:15.466Z,50.65
2023-04-04T08:30:43.077Z,49.03
2023-04-04T08:33:11.764Z,47.59
2023-04-04T08:35:39.814Z,45.96
2023-04-04T08:38:08.720Z,47.13
2023-04-04T08:40:38.485Z,48.23
2023-04-04T08:43:07.626Z,49.47
2023-04-04T08:45:36.257Z,48.43
2023-04-04T08:48:05.862Z,47.51
2023-04-04T08:50:34.082Z,47.38
2023-04-04T08:53:04.587Z,45.37
2023-04-04T08:55:33.583Z,46.11
2023-04-04T08:58:01.189Z,46.46
2023-04-04T09:00:29.630Z,46.30
2023-04-04T09:03:05.569Z,45.31
2023-04-04T09:05:34.823Z,46.23
2023-04-04T09:08:03.776Z,45.89
2023-04-04T09:10:32.791Z,46.08
2023-04-04T09:13:12.535Z,48.14
2023-04-04T09:15:47.085Z,45.17
2023-04-04T09:18:14.634Z,44.99
2023-04-04T09:20:43.180Z,44.31
2023-04-04T09:23:13.139Z,44.69
2023-04-04T09:26:02.638Z,45.35
2023-04-04T09:28:32.821Z,42.72
2023-04-04T09:31:02.902Z,44.00
2023-04-04T09:33:32.971Z,45.88
2023-04-04T09:36:03.438Z,43.05
2023-04-04T09:38:42.980Z,41.10
2023-04-04T09:41:16.091Z,42.11
2023-04-04T09:43:49.533Z,43.87
2023-04-04T09:46:21.741Z,42.24
2023-04-04T09:48:51.305Z,41.48
2023-04-04T09:51:18.979Z,41.67
2023-04-04T09:53:49.313Z,43.30
2023-04-04T09:56:18.409Z,41.71
2023-04-04T09:59:02.493Z,40.41
2023-04-04T10:01:31.322Z,43.21
2023-04-04T10:03:59.240Z,50.92
2023-04-04T10:06:27.943Z,44.41
2023-04-04T10:08:58.355Z,42.41
2023-04-04T10:11:32.320Z,42.69
2023-04-04T10:14:00.760Z,42.41
2023-04-04T10:16:32.836Z,40.51
2023-04-04T10:19:02.420Z,40.87
2023-04-04T10:21:31.339Z,40.08
2023-04-04T10:23:59.948Z,41.78
2023-04-04T10:26:27.688Z,39.78
2023-04-04T10:28:58.198Z,39.63
2023-04-04T10:31:27.374Z,40.49
2023-04-04T10:34:07.889Z,39.40
2023-04-04T10:36:44.456Z,36.92
2023-04-04T10:39:15.701Z,39.47
2023-04-04T10:41:43.843Z,38.15
2023-04-04T10:44:21.481Z,40.10
2023-04-04T10:46:55.322Z,36.89
2023-04-04T10:49:23.644Z,37.07
2023-04-04T10:51:56.336Z,37.68
2023-04-04T10:54:26.544Z,36.86
2023-04-04T10:56:54.777Z,38.13
2023-04-04T10:59:26.192Z,35.88
2023-04-04T11:01:58.050Z,36.22
2023-04-04T11:04:34.588Z,36.15
2023-04-04T11:07:17.140Z,36.23
2023-04-04T11:09:52.228Z,35.76
2023-04-04T11:12:28.170Z,35.49
2023-04-04T11:14:59.020Z,33.77
2023-04-04T11:17:43.475Z,35.40
2023-04-04T11:20:11.584Z,32.95
2023-04-04T11:22:42.540Z,32.43
2023-04-04T11:25:37.757Z,34.15
2023-04-04T11:28:08.330Z,36.43
2023-04-04T11:30:44.849Z,33.29
2023-04-04T11:33:15.267Z,32.82
2023-04-04T11:35:50.134Z,36.52
2023-04-04T11:38:17.980Z,34.18
2023-04-04T11:40:56.106Z,31.86
2023-04-04T11:43:24.815Z,31.48
2023-04-04T11:45:55.375Z,32.51
2023-04-04T11:48:23.812Z,31.95
2023-04-04T11:50:51.779Z,30.75
2023-04-04T11:53:19.457Z,33.16
2023-04-04T11:55:51.560Z,31.64
2023-04-04T11:58:20.295Z,33.51
2023-04-04T12:00:48.074Z,32.35
2023-04-04T12:03:18.452Z,29.95
2023-04-04T12:05:47.593Z,30.81
2023-04-04T12:08:16.015Z,30.25
2023-04-04T12:10:44.357Z,32.10
2023-04-04T12:13:13.041Z,30.52
2023-04-04T12:15:40.749Z,30.00
2023-04-04T12:18:09.597Z,31.90
2023-04-04T12:20:41.461Z,30.40
2023-04-04T12:23:09.540Z,28.26
2023-04-04T12:28:28.405Z,28.87
2023-04-04T12:30:56.583Z,28.81
2023-04-04T12:33:24.262Z,28.46
2023-04-04T12:35:54.610Z,28.26
2023-04-04T12:38:22.264Z,26.72
2023-04-04T12:40:52.375Z,27.57
2023-04-04T12:43:20.795Z,26.41
2023-04-04T12:45:51.218Z,26.11
2023-04-04T12:48:18.942Z,25.47
2023-04-04T12:50:55.854Z,26.43
2023-04-04T12:55:56.687Z,25.87
2023-04-04T12:58:25.916Z,25.13
2023-04-04T13:00:56.160Z,24.02
2023-04-04T13:03:25.419Z,23.82
2023-04-04T13:05:54.451Z,23.85
2023-04-04T13:08:22.258Z,23.43
2023-04-04T13:11:04.835Z,22.16
2023-04-04T13:13:34.468Z,23.17
2023-04-04T13:16:02.769Z,23.83
2023-04-04T13:18:35.709Z,22.70
2023-04-04T13:21:06.971Z,21.21
2023-04-04T13:23:34.908Z,21.05
2023-04-04T13:26:04.125Z,20.17
2023-04-04T13:28:31.829Z,20.44
2023-04-04T13:31:03.416Z,19.62
2023-04-04T13:33:31.043Z,19.51
2023-04-04T13:35:58.788Z,19.91
2023-04-04T13:38:28.167Z,18.73
2023-04-04T13:40:56.237Z,18.90
2023-04-04T13:43:23.815Z,18.51
2023-04-04T13:45:52.991Z,18.37
2023-04-04T13:48:20.614Z,17.28
2023-04-04T13:50:51.303Z,17.95
2023-04-04T13:53:19.094Z,17.50
2023-04-04T13:56:07.585Z,17.55
2023-04-04T13:58:35.560Z,16.90
2023-04-04T14:01:04.293Z,17.60
2023-04-04T14:03:32.498Z,18.00
2023-04-04T14:08:47.613Z,18.12
2023-04-04T14:11:16.840Z,17.52
2023-04-04T14:13:44.440Z,16.72
2023-04-04T14:16:12.044Z,18.34
2023-04-04T14:18:39.702Z,16.78
2023-04-04T14:21:07.338Z,15.84
2023-04-04T14:23:34.892Z,16.16
2023-04-04T14:26:02.447Z,15.49
2023-04-04T14:28:31.301Z,15.39
2023-04-04T14:30:58.870Z,15.87
2023-04-04T14:33:26.996Z,14.57
2023-04-04T14:35:54.650Z,16.44
2023-04-04T14:38:22.181Z,17.25
2023-04-04T14:40:50.099Z,16.69
2023-04-04T14:43:17.678Z,16.40
2023-04-04T14:45:47.005Z,15.96
2023-04-04T14:48:14.708Z,16.46
2023-04-04T14:50:42.865Z,15.86
2023-04-04T14:53:10.453Z,16.41
2023-04-04T14:55:38.351Z,16.03
2023-04-04T14:58:06.894Z,15.06
2023-04-04T15:00:34.667Z,14.36
2023-04-04T15:03:04.944Z,13.97
2023-04-04T15:05:34.156Z,14.52
2023-04-04T15:08:01.694Z,14.99
2023-04-04T15:10:29.280Z,14.00
2023-04-04T15:12:56.818Z,14.61
2023-04-04T15:15:24.574Z,13.81
2023-04-04T15:17:52.223Z,14.17
2023-04-04T15:20:21.129Z,14.34
2023-04-04T15:22:48.778Z,12.75
2023-04-04T15:25:16.395Z,13.51
2023-04-04T15:27:44.026Z,13.25
2023-04-04T15:30:13.020Z,13.84
2023-04-04T15:32:40.770Z,12.79
2023-04-04T15:35:17.529Z,13.16
2023-04-04T15:37:46.501Z,13.38
2023-04-04T15:40:14.142Z,12.99
2023-04-04T15:42:41.751Z,12.83
2023-04-04T15:45:10.623Z,11.95
2023-04-04T15:47:38.226Z,12.44
2023-04-04T15:50:07.269Z,11.94
2023-04-04T15:52:34.930Z,11.48
2023-04-04T15:55:04.033Z,12.39
2023-04-04T15:57:31.850Z,11.66
2023-04-04T15:59:59.450Z,12.50
2023-04-04T16:02:27.117Z,12.04
2023-04-04T16:04:54.762Z,11.68
2023-04-04T16:07:22.348Z,11.72
2023-04-04T16:09:49.886Z,11.65
2023-04-04T16:12:20.062Z,12.15
2023-04-04T16:14:47.630Z,11.69
2023-04-04T16:17:15.509Z,11.67
2023-04-04T16:19:43.055Z,12.12
2023-04-04T16:22:10.643Z,12.25
2023-04-04T16:24:38.313Z,13.16
2023-04-04T16:27:05.923Z,14.53
2023-04-04T16:29:34.800Z,18.59
2023-04-04T16:32:02.354Z,13.71
2023-04-04T16:34:29.887Z,12.80
2023-04-04T16:36:57.514Z,14.42
2023-04-04T16:39:25.653Z,13.22
2023-04-04T16:41:53.166Z,12.76
2023-04-04T16:44:20.844Z,12.82
2023-04-04T16:46:49.753Z,12.89
2023-04-04T16:49:17.388Z,18.93
2023-04-04T16:51:44.906Z,15.50
2023-04-04T16:54:13.082Z,17.41
2023-04-04T16:56:41.867Z,18.84
2023-04-04T16:59:09.451Z,18.95
2023-04-04T17:01:38.552Z,18.48
2023-04-04T17:04:07.540Z,17.68
2023-04-04T17:06:35.227Z,18.32
2023-04-04T17:09:02.792Z,16.39
2023-04-04T17:11:30.940Z,18.79
2023-04-04T17:13:58.861Z,19.63
2023-04-04T17:16:27.761Z,20.06
2023-04-04T17:18:55.480Z,18.23
2023-04-04T17:21:24.407Z,18.03
2023-04-04T17:23:52.023Z,18.38
2023-04-04T17:26:19.549Z,18.98
2023-04-04T17:28:47.098Z,18.75
2023-04-04T17:31:16.544Z,21.06
2023-04-04T17:33:45.031Z,21.43
2023-04-04T17:36:12.642Z,21.90
2023-04-04T17:38:41.598Z,21.99
2023-04-04T17:41:09.213Z,24.47
2023-04-04T17:43:37.258Z,24.77
2023-04-04T17:46:06.507Z,26.18
2023-04-04T17:48:36.659Z,26.76
2023-04-04T17:51:06.183Z,27.88
2023-04-04T17:53:35.729Z,28.37
2023-04-04T17:56:04.981Z,29.91
2023-04-04T17:58:32.534Z,30.87
2023-04-04T18:01:02.866Z,30.98
2023-04-04T18:03:30.613Z,31.64
2023-04-04T18:05:58.366Z,31.91
2023-04-04T18:08:26.198Z,32.97
2023-04-04T18:10:53.798Z,32.88
2023-04-04T18:13:22.713Z,33.85
2023-04-04T18:15:50.745Z,33.68
2023-04-04T18:18:21.067Z,33.98
2023-04-04T18:20:49.196Z,34.75
2023-04-04T18:23:17.475Z,35.85
2023-04-04T18:25:45.169Z,35.63
2023-04-04T18:28:12.810Z,36.27
2023-04-04T18:30:42.068Z,36.16
2023-04-04T18:33:09.955Z,36.44
2023-04-04T18:35:37.610Z,37.03
2023-04-04T18:38:05.208Z,37.28
2023-04-04T18:40:32.835Z,37.15
2023-04-04T18:43:02.294Z,37.79
2023-04-04T18:45:39.227Z,37.62
2023-04-04T18:48:09.285Z,37.76
2023-04-04T18:50:37.229Z,38.63
2023-04-04T18:53:04.976Z,39.13
2023-04-04T18:55:32.739Z,39.73
2023-04-04T18:58:00.448Z,39.16
2023-04-04T19:00:28.005Z,39.76
2023-04-04T19:02:57.011Z,40.06
2023-04-04T19:05:26.236Z,39.94
2023-04-04T19:07:54.775Z,39.88
2023-04-04T19:10:22.993Z,39.53
2023-04-04T19:12:50.820Z,39.98
2023-04-04T19:15:18.477Z,40.28
2023-04-04T19:17:46.201Z,40.27
2023-04-04T19:20:14.066Z,40.52
2023-04-04T19:22:42.969Z,41.32
2023-04-04T19:25:10.615Z,40.97
2023-04-04T19:27:38.431Z,40.58
2023-04-04T19:30:34.358Z,40.94
2023-04-04T19:33:02.775Z,41.62
2023-04-04T19:35:49.350Z,42.37
2023-04-04T19:38:21.785Z,41.43
2023-04-04T19:40:51.250Z,41.68
2023-04-04T19:43:21.232Z,42.33
2023-04-04T19:45:50.713Z,43.34
2023-04-04T19:48:52.048Z,42.55
2023-04-04T19:51:38.764Z,43.67
2023-04-04T19:54:11.697Z,43.66
2023-04-04T19:56:39.244Z,44.90
2023-04-04T19:59:09.959Z,44.71
2023-04-04T20:01:44.643Z,45.65
2023-04-04T20:04:15.004Z,45.78
2023-04-04T20:06:42.954Z,45.97
2023-04-04T20:09:26.243Z,47.47
2023-04-04T20:11:54.127Z,46.67
2023-04-04T20:14:22.197Z,47.71
2023-04-04T20:16:51.303Z,49.58
2023-04-04T20:19:21.677Z,50.74
2023-04-04T20:21:49.917Z,51.79
2023-04-04T20:24:19.875Z,50.80
2023-04-04T20:26:52.314Z,51.47
2023-04-04T20:29:22.536Z,56.79
2023-04-04T20:31:52.080Z,53.57
2023-04-04T20:34:37.462Z,53.29
2023-04-04T20:37:09.945Z,53.66
2023-04-04T20:39:46.016Z,54.64
2023-04-04T20:42:34.824Z,53.34
2023-04-04T20:45:31.510Z,54.49
2023-04-04T20:48:00.580Z,53.92
2023-04-04T20:50:43.898Z,54.75
2023-04-04T20:53:18.193Z,54.90
2023-04-04T20:55:47.212Z,55.23
2023-04-04T20:58:29.079Z,56.58
2023-04-04T21:00:58.647Z,55.95
2023-04-04T21:03:36.971Z,56.62
2023-04-04T21:06:12.589Z,56.78
2023-04-04T21:08:44.158Z,58.47
2023-04-04T21:11:14.042Z,59.20
2023-04-04T21:13:44.712Z,59.91
2023-04-04T21:16:13.689Z,59.30
2023-04-04T21:18:42.320Z,58.81
2023-04-04T21:21:20.081Z,59.29
2023-04-04T21:23:52.546Z,60.22
2023-04-04T21:26:33.088Z,59.47
2023-04-04T21:29:02.814Z,60.56
2023-04-04T21:31:35.936Z,60.24
2023-04-04T21:34:10.024Z,60.98
2023-04-04T21:36:37.545Z,61.93
2023-04-04T21:39:08.576Z,62.42
2023-04-04T21:41:37.476Z,63.13
2023-04-04T21:44:07.155Z,63.50
2023-04-04T21:46:36.188Z,64.02
2023-04-04T21:49:04.692Z,64.47
2023-04-04T21:51:32.305Z,64.41
2023-04-04T21:54:00.873Z,64.74
2023-04-04T21:56:31.349Z,64.30
2023-04-04T21:59:00.889Z,64.47
2023-04-04T22:01:30.233Z,65.64
2023-04-04T22:03:58.239Z,65.63
2023-04-04T22:06:27.145Z,65.36
2023-04-04T22:08:55.974Z,66.22
2023-04-04T22:11:25.832Z,67.72
2023-04-04T22:14:02.846Z,66.72
2023-04-04T22:16:32.230Z,67.01
2023-04-04T22:19:01.240Z,68.15
2023-04-04T22:21:29.657Z,67.34
2023-04-04T22:24:00.825Z,67.36
2023-04-04T22:26:33.253Z,67.47
2023-04-04T22:29:02.672Z,67.00
2023-04-04T22:31:34.113Z,67.93
2023-04-04T22:34:02.983Z,67.94
2023-04-04T22:36:30.684Z,68.57
2023-04-04T22:38:58.575Z,69.32
2023-04-04T22:41:28.591Z,68.86
2023-04-04T22:43:57.031Z,69.06
2023-04-04T22:46:26.286Z,68.71
2023-04-04T22:49:04.925Z,69.29
2023-04-04T22:51:44.572Z,69.54
2023-04-04T22:54:14.128Z,69.99
2023-04-04T22:56:41.903Z,69.94
2023-04-04T22:59:09.783Z,70.52
2023-04-04T23:01:37.462Z,70.93
2023-04-04T23:04:06.525Z,72.11
2023-04-04T23:06:34.219Z,72.66
2023-04-04T23:09:02.771Z,72.93
2023-04-04T23:11:30.884Z,72.72
2023-04-04T23:13:58.516Z,71.93
2023-04-04T23:16:26.309Z,71.54
2023-04-04T23:18:54.112Z,71.98
2023-04-04T23:21:23.018Z,72.67
2023-04-04T23:23:50.839Z,72.14
2023-04-04T23:26:18.357Z,72.45
2023-04-04T23:28:45.964Z,73.10
2023-04-04T23:31:14.720Z,72.82
2023-04-04T23:33:42.928Z,72.13
2023-04-04T23:36:10.513Z,72.28
2023-04-04T23:38:39.478Z,72.90
2023-04-04T23:41:07.499Z,72.95
2023-04-04T23:43:35.996Z,72.96
2023-04-04T23:46:03.770Z,72.95
2023-04-04T23:48:31.431Z,73.10
2023-04-04T23:51:01.558Z,72.91
2023-04-04T23:53:29.575Z,72.90
2023-04-04T23:55:58.463Z,72.76
2023-04-04T23:58:26.026Z,73.16
